sensor_id;sensor_type;location;lat;lon;timestamp;pressure;altitude;pressure_sealevel;temperature;humidity
36502;BME280;25393;46.108;3.390;2023-02-19T00:01:42;99103.69;;;9.14;100.00
36502;BME280;25393;46.108;3.390;2023-02-19T00:04:18;99099.19;;;9.04;100.00
36502;BME280;25393;46.108;3.390;2023-02-19T00:06:45;99087.34;;;8.99;100.00
36502;BME280;25393;46.108;3.390;2023-02-19T00:09:17;99097.84;;;9.10;100.00
36502;BME280;25393;46.108;3.390;2023-02-19T00:11:46;99079.16;;;9.12;100.00
36502;BME280;25393;46.108;3.390;2023-02-19T00:14:19;99098.41;;;9.14;100.00
36502;BME280;25393;46.108;3.390;2023-02-19T00:16:46;99096.72;;;9.13;100.00
36502;BME280;25393;46.108;3.390;2023-02-19T00:19:18;99090.66;;;9.22;100.00
36502;BME280;25393;46.108;3.390;2023-02-19T00:21:45;99089.50;;;9.15;100.00
36502;BME280;25393;46.108;3.390;2023-02-19T00:24:13;99095.78;;;9.33;100.00
36502;BME280;25393;46.108;3.390;2023-02-19T00:26:47;99096.78;;;9.32;100.00
36502;BME280;25393;46.108;3.390;2023-02-19T00:29:19;99101.38;;;9.30;100.00
36502;BME280;25393;46.108;3.390;2023-02-19T00:31:45;99104.69;;;9.22;100.00
36502;BME280;25393;46.108;3.390;2023-02-19T00:34:13;99103.81;;;9.12;100.00
36502;BME280;25393;46.108;3.390;2023-02-19T00:36:43;99091.13;;;9.06;100.00
36502;BME280;25393;46.108;3.390;2023-02-19T00:39:17;99093.78;;;9.06;100.00
36502;BME280;25393;46.108;3.390;2023-02-19T00:41:44;99085.72;;;9.08;100.00
36502;BME280;25393;46.108;3.390;2023-02-19T00:44:12;99096.59;;;9.14;100.00
36502;BME280;25393;46.108;3.390;2023-02-19T00:46:40;99094.25;;;9.21;100.00
36502;BME280;25393;46.108;3.390;2023-02-19T00:49:12;99092.81;;;9.07;100.00
36502;BME280;25393;46.108;3.390;2023-02-19T00:51:43;99075.38;;;8.95;100.00
36502;BME280;25393;46.108;3.390;2023-02-19T00:54:10;99075.75;;;8.90;100.00
36502;BME280;25393;46.108;3.390;2023-02-19T00:56:37;99081.09;;;9.00;100.00
36502;BME280;25393;46.108;3.390;2023-02-19T00:59:03;99084.72;;;9.09;100.00
36502;BME280;25393;46.108;3.390;2023-02-19T01:01:30;99075.72;;;9.11;100.00
36502;BME280;25393;46.108;3.390;2023-02-19T01:03:57;99075.38;;;9.04;100.00
36502;BME280;25393;46.108;3.390;2023-02-19T01:06:23;99067.78;;;9.11;100.00
36502;BME280;25393;46.108;3.390;2023-02-19T01:08:50;99062.63;;;9.19;100.00
36502;BME280;25393;46.108;3.390;2023-02-19T01:11:20;99069.72;;;9.19;100.00
36502;BME280;25393;46.108;3.390;2023-02-19T01:13:50;99067.50;;;9.14;100.00
36502;BME280;25393;46.108;3.390;2023-02-19T01:16:21;99055.63;;;9.09;100.00
36502;BME280;25393;46.108;3.390;2023-02-19T01:18:50;99061.69;;;9.30;100.00
36502;BME280;25393;46.108;3.390;2023-02-19T01:21:21;99065.44;;;9.37;100.00
36502;BME280;25393;46.108;3.390;2023-02-19T01:23:52;99062.50;;;9.21;100.00
36502;BME280;25393;46.108;3.390;2023-02-19T01:26:21;99063.34;;;9.21;100.00
36502;BME280;25393;46.108;3.390;2023-02-19T01:28:49;99052.75;;;9.21;100.00
36502;BME280;25393;46.108;3.390;2023-02-19T01:31:20;99047.03;;;9.16;100.00
36502;BME280;25393;46.108;3.390;2023-02-19T01:33:53;99057.41;;;9.48;100.00
36502;BME280;25393;46.108;3.390;2023-02-19T01:36:20;99045.41;;;9.34;100.00
36502;BME280;25393;46.108;3.390;2023-02-19T01:38:49;99052.09;;;9.48;100.00
36502;BME280;25393;46.108;3.390;2023-02-19T01:41:18;99058.81;;;9.52;100.00
36502;BME280;25393;46.108;3.390;2023-02-19T01:46:40;99051.94;;;9.21;100.00
36502;BME280;25393;46.108;3.390;2023-02-19T01:49:15;99054.09;;;8.96;100.00
36502;BME280;25393;46.108;3.390;2023-02-19T01:52:10;99061.28;;;8.85;100.00
36502;BME280;25393;46.108;3.390;2023-02-19T01:54:41;99063.63;;;8.78;100.00
36502;BME280;25393;46.108;3.390;2023-02-19T01:57:18;99061.66;;;8.80;100.00
36502;BME280;25393;46.108;3.390;2023-02-19T01:59:50;99054.75;;;8.89;100.00
36502;BME280;25393;46.108;3.390;2023-02-19T02:02:21;99060.78;;;9.00;100.00
36502;BME280;25393;46.108;3.390;2023-02-19T02:04:51;99057.16;;;9.01;100.00
36502;BME280;25393;46.108;3.390;2023-02-19T02:07:17;99061.50;;;9.12;100.00
36502;BME280;25393;46.108;3.390;2023-02-19T02:10:03;99048.38;;;9.01;100.00
36502;BME280;25393;46.108;3.390;2023-02-19T02:12:56;99052.00;;;9.00;100.00
36502;BME280;25393;46.108;3.390;2023-02-19T02:15:28;99064.38;;;8.90;100.00
36502;BME280;25393;46.108;3.390;2023-02-19T02:32:14;99058.72;;;9.04;100.00
36502;BME280;25393;46.108;3.390;2023-02-19T02:34:56;99063.28;;;9.02;100.00
36502;BME280;25393;46.108;3.390;2023-02-19T02:37:27;99055.34;;;9.02;100.00
36502;BME280;25393;46.108;3.390;2023-02-19T02:39:57;99058.56;;;9.06;100.00
36502;BME280;25393;46.108;3.390;2023-02-19T02:42:24;99060.13;;;9.18;100.00
36502;BME280;25393;46.108;3.390;2023-02-19T02:44:57;99028.50;;;9.16;100.00
36502;BME280;25393;46.108;3.390;2023-02-19T02:47:57;99050.97;;;9.41;100.00
36502;BME280;25393;46.108;3.390;2023-02-19T02:50:25;99054.47;;;9.32;100.00
36502;BME280;25393;46.108;3.390;2023-02-19T02:53:00;99046.81;;;9.38;100.00
36502;BME280;25393;46.108;3.390;2023-02-19T02:55:48;99044.28;;;9.37;100.00
36502;BME280;25393;46.108;3.390;2023-02-19T02:58:22;99014.44;;;9.16;100.00
36502;BME280;25393;46.108;3.390;2023-02-19T03:00:55;99038.16;;;9.36;100.00
36502;BME280;25393;46.108;3.390;2023-02-19T03:03:42;99033.03;;;9.44;100.00
36502;BME280;25393;46.108;3.390;2023-02-19T03:06:14;99031.78;;;9.48;100.00
36502;BME280;25393;46.108;3.390;2023-02-19T03:08:56;99041.34;;;9.40;100.00
36502;BME280;25393;46.108;3.390;2023-02-19T03:11:24;99039.25;;;9.24;100.00
36502;BME280;25393;46.108;3.390;2023-02-19T03:14:14;99039.66;;;9.20;100.00
36502;BME280;25393;46.108;3.390;2023-02-19T03:17:16;99038.81;;;9.19;100.00
36502;BME280;25393;46.108;3.390;2023-02-19T03:20:05;99054.59;;;9.30;100.00
36502;BME280;25393;46.108;3.390;2023-02-19T03:22:35;99041.91;;;9.24;100.00
36502;BME280;25393;46.108;3.390;2023-02-19T03:25:11;99047.22;;;9.34;100.00
36502;BME280;25393;46.108;3.390;2023-02-19T03:28:00;99045.13;;;9.28;100.00
36502;BME280;25393;46.108;3.390;2023-02-19T03:30:32;99053.84;;;9.19;100.00
36502;BME280;25393;46.108;3.390;2023-02-19T03:33:03;99052.88;;;9.10;100.00
36502;BME280;25393;46.108;3.390;2023-02-19T03:35:43;99057.19;;;9.11;100.00
36502;BME280;25393;46.108;3.390;2023-02-19T03:38:15;99050.63;;;9.15;100.00
36502;BME280;25393;46.108;3.390;2023-02-19T03:40:53;99055.94;;;9.15;100.00
36502;BME280;25393;46.108;3.390;2023-02-19T03:43:36;99053.00;;;9.09;100.00
36502;BME280;25393;46.108;3.390;2023-02-19T03:46:12;99050.34;;;9.09;100.00
36502;BME280;25393;46.108;3.390;2023-02-19T03:48:50;99040.59;;;8.99;100.00
36502;BME280;25393;46.108;3.390;2023-02-19T03:51:35;99042.28;;;9.10;100.00
36502;BME280;25393;46.108;3.390;2023-02-19T03:59:16;99046.47;;;9.13;100.00
36502;BME280;25393;46.108;3.390;2023-02-19T04:01:59;99053.47;;;9.23;100.00
36502;BME280;25393;46.108;3.390;2023-02-19T04:04:31;99050.41;;;9.18;100.00
36502;BME280;25393;46.108;3.390;2023-02-19T04:06:58;99055.41;;;9.21;100.00
36502;BME280;25393;46.108;3.390;2023-02-19T04:09:36;99060.28;;;9.26;100.00
36502;BME280;25393;46.108;3.390;2023-02-19T04:12:05;99056.00;;;9.34;100.00
36502;BME280;25393;46.108;3.390;2023-02-19T04:14:38;99061.69;;;9.39;100.00
36502;BME280;25393;46.108;3.390;2023-02-19T04:17:16;99065.03;;;9.32;100.00
36502;BME280;25393;46.108;3.390;2023-02-19T04:19:45;99062.63;;;9.19;100.00
36502;BME280;25393;46.108;3.390;2023-02-19T04:22:15;99061.78;;;9.19;100.00
36502;BME280;25393;46.108;3.390;2023-02-19T04:24:46;99063.06;;;9.24;100.00
36502;BME280;25393;46.108;3.390;2023-02-19T04:27:15;99065.59;;;9.35;100.00
36502;BME280;25393;46.108;3.390;2023-02-19T04:29:42;99069.91;;;9.36;100.00
36502;BME280;25393;46.108;3.390;2023-02-19T04:32:10;99074.78;;;9.41;100.00
36502;BME280;25393;46.108;3.390;2023-02-19T04:34:37;99060.72;;;9.31;100.00
36502;BME280;25393;46.108;3.390;2023-02-19T04:37:04;99062.97;;;9.35;100.00
36502;BME280;25393;46.108;3.390;2023-02-19T04:39:31;99058.63;;;9.25;100.00
36502;BME280;25393;46.108;3.390;2023-02-19T04:42:00;99052.19;;;9.18;100.00
36502;BME280;25393;46.108;3.390;2023-02-19T04:44:26;99053.84;;;9.19;100.00
36502;BME280;25393;46.108;3.390;2023-02-19T04:46:57;99056.53;;;9.28;100.00
36502;BME280;25393;46.108;3.390;2023-02-19T04:49:26;99042.19;;;9.31;100.00
36502;BME280;25393;46.108;3.390;2023-02-19T04:51:55;99037.47;;;9.34;100.00
36502;BME280;25393;46.108;3.390;2023-02-19T04:54:22;99033.47;;;9.49;100.00
36502;BME280;25393;46.108;3.390;2023-02-19T04:56:49;99042.53;;;9.57;100.00
36502;BME280;25393;46.108;3.390;2023-02-19T04:59:16;99033.59;;;9.58;100.00
36502;BME280;25393;46.108;3.390;2023-02-19T05:01:43;99033.75;;;9.56;100.00
36502;BME280;25393;46.108;3.390;2023-02-19T05:04:09;99022.88;;;9.59;100.00
36502;BME280;25393;46.108;3.390;2023-02-19T05:06:36;99032.06;;;9.55;100.00
36502;BME280;25393;46.108;3.390;2023-02-19T05:09:02;99023.28;;;9.54;100.00
36502;BME280;25393;46.108;3.390;2023-02-19T05:11:32;99032.19;;;9.53;100.00
36502;BME280;25393;46.108;3.390;2023-02-19T05:13:58;99033.75;;;9.56;100.00
36502;BME280;25393;46.108;3.390;2023-02-19T05:16:28;99020.34;;;9.48;100.00
36502;BME280;25393;46.108;3.390;2023-02-19T05:18:55;99015.34;;;9.54;100.00
36502;BME280;25393;46.108;3.390;2023-02-19T05:21:22;98996.13;;;9.62;100.00
36502;BME280;25393;46.108;3.390;2023-02-19T05:23:49;98987.63;;;9.49;100.00
36502;BME280;25393;46.108;3.390;2023-02-19T05:26:20;98993.03;;;9.47;100.00
36502;BME280;25393;46.108;3.390;2023-02-19T05:28:50;98993.16;;;9.36;100.00
36502;BME280;25393;46.108;3.390;2023-02-19T05:31:18;99000.16;;;9.37;100.00
36502;BME280;25393;46.108;3.390;2023-02-19T05:33:45;98994.16;;;9.54;98.58
36502;BME280;25393;46.108;3.390;2023-02-19T05:36:18;99004.06;;;9.62;97.49
36502;BME280;25393;46.108;3.390;2023-02-19T05:38:45;98994.72;;;9.48;97.63
36502;BME280;25393;46.108;3.390;2023-02-19T05:41:14;99012.09;;;9.13;99.87
36502;BME280;25393;46.108;3.390;2023-02-19T05:43:43;99012.91;;;9.03;100.00
36502;BME280;25393;46.108;3.390;2023-02-19T05:46:11;98996.03;;;8.95;100.00
36502;BME280;25393;46.108;3.390;2023-02-19T05:48:38;98991.59;;;8.95;100.00
36502;BME280;25393;46.108;3.390;2023-02-19T05:51:11;98992.16;;;8.99;100.00
36502;BME280;25393;46.108;3.390;2023-02-19T05:53:39;98997.25;;;8.81;100.00
36502;BME280;25393;46.108;3.390;2023-02-19T05:58:52;99000.38;;;8.56;100.00
36502;BME280;25393;46.108;3.390;2023-02-19T06:01:20;99012.44;;;8.49;100.00
36502;BME280;25393;46.108;3.390;2023-02-19T06:03:47;99006.72;;;8.44;100.00
36502;BME280;25393;46.108;3.390;2023-02-19T06:06:15;99018.38;;;8.41;100.00
36502;BME280;25393;46.108;3.390;2023-02-19T06:08:42;99012.09;;;8.12;100.00
36502;BME280;25393;46.108;3.390;2023-02-19T06:11:09;99039.19;;;8.14;100.00
36502;BME280;25393;46.108;3.390;2023-02-19T06:13:36;99028.94;;;8.00;100.00
36502;BME280;25393;46.108;3.390;2023-02-19T06:16:03;99042.16;;;8.00;100.00
36502;BME280;25393;46.108;3.390;2023-02-19T06:18:31;99026.63;;;7.86;100.00
36502;BME280;25393;46.108;3.390;2023-02-19T06:21:06;99051.34;;;7.85;100.00
36502;BME280;25393;46.108;3.390;2023-02-19T06:23:33;99050.91;;;7.80;100.00
36502;BME280;25393;46.108;3.390;2023-02-19T06:26:14;99048.50;;;7.77;100.00
36502;BME280;25393;46.108;3.390;2023-02-19T06:28:41;99071.28;;;7.78;100.00
36502;BME280;25393;46.108;3.390;2023-02-19T06:31:10;99069.75;;;7.75;100.00
36502;BME280;25393;46.108;3.390;2023-02-19T06:33:38;99078.66;;;7.95;100.00
36502;BME280;25393;46.108;3.390;2023-02-19T06:36:08;99070.22;;;8.01;100.00
36502;BME280;25393;46.108;3.390;2023-02-19T06:38:36;99069.44;;;8.10;100.00
36502;BME280;25393;46.108;3.390;2023-02-19T06:41:04;99069.66;;;8.18;100.00
36502;BME280;25393;46.108;3.390;2023-02-19T06:43:34;99074.47;;;8.13;100.00
36502;BME280;25393;46.108;3.390;2023-02-19T06:46:03;99090.66;;;8.20;100.00
36502;BME280;25393;46.108;3.390;2023-02-19T06:48:33;99097.16;;;8.16;100.00
36502;BME280;25393;46.108;3.390;2023-02-19T06:51:03;99089.72;;;8.10;100.00
36502;BME280;25393;46.108;3.390;2023-02-19T06:53:33;99092.53;;;8.08;100.00
36502;BME280;25393;46.108;3.390;2023-02-19T06:56:05;99118.44;;;8.35;100.00
36502;BME280;25393;46.108;3.390;2023-02-19T06:58:33;99116.56;;;8.26;100.00
36502;BME280;25393;46.108;3.390;2023-02-19T07:01:01;99106.25;;;8.23;100.00
36502;BME280;25393;46.108;3.390;2023-02-19T07:03:28;99109.53;;;8.15;100.00
36502;BME280;25393;46.108;3.390;2023-02-19T07:05:58;99114.94;;;8.14;100.00
36502;BME280;25393;46.108;3.390;2023-02-19T07:08:27;99114.94;;;8.14;100.00
36502;BME280;25393;46.108;3.390;2023-02-19T07:10:57;99132.78;;;8.21;100.00
36502;BME280;25393;46.108;3.390;2023-02-19T07:13:24;99147.94;;;8.19;100.00
36502;BME280;25393;46.108;3.390;2023-02-19T07:16:04;99138.44;;;8.17;100.00
36502;BME280;25393;46.108;3.390;2023-02-19T07:18:33;99137.94;;;8.23;100.00
36502;BME280;25393;46.108;3.390;2023-02-19T07:21:07;99133.50;;;8.23;100.00
36502;BME280;25393;46.108;3.390;2023-02-19T07:23:34;99130.59;;;8.26;100.00
36502;BME280;25393;46.108;3.390;2023-02-19T07:26:01;99129.28;;;8.21;100.00
36502;BME280;25393;46.108;3.390;2023-02-19T07:28:28;99136.53;;;8.19;100.00
36502;BME280;25393;46.108;3.390;2023-02-19T07:30:59;99147.28;;;8.27;100.00
36502;BME280;25393;46.108;3.390;2023-02-19T07:33:33;99152.59;;;8.27;100.00
36502;BME280;25393;46.108;3.390;2023-02-19T07:36:05;99150.16;;;8.24;100.00
36502;BME280;25393;46.108;3.390;2023-02-19T07:38:31;99138.69;;;8.14;100.00
36502;BME280;25393;46.108;3.390;2023-02-19T07:41:01;99149.84;;;8.17;100.00
36502;BME280;25393;46.108;3.390;2023-02-19T07:43:30;99155.00;;;8.19;100.00
36502;BME280;25393;46.108;3.390;2023-02-19T07:46:05;99157.50;;;8.20;100.00
36502;BME280;25393;46.108;3.390;2023-02-19T07:48:33;99157.66;;;8.19;100.00
36502;BME280;25393;46.108;3.390;2023-02-19T07:51:02;99163.38;;;8.24;100.00
36502;BME280;25393;46.108;3.390;2023-02-19T07:53:33;99181.22;;;8.42;100.00
36502;BME280;25393;46.108;3.390;2023-02-19T07:56:06;99171.81;;;8.49;100.00
36502;BME280;25393;46.108;3.390;2023-02-19T07:58:33;99188.31;;;8.63;100.00
36502;BME280;25393;46.108;3.390;2023-02-19T08:01:08;99193.72;;;8.61;100.00
36502;BME280;25393;46.108;3.390;2023-02-19T08:03:37;99186.97;;;8.68;100.00
36502;BME280;25393;46.108;3.390;2023-02-19T08:06:04;99194.44;;;8.84;100.00
36502;BME280;25393;46.108;3.390;2023-02-19T08:08:31;99182.00;;;8.75;100.00
36502;BME280;25393;46.108;3.390;2023-02-19T08:11:00;99189.44;;;8.90;100.00
36502;BME280;25393;46.108;3.390;2023-02-19T08:13:47;99188.50;;;8.91;100.00
36502;BME280;25393;46.108;3.390;2023-02-19T08:16:15;99177.91;;;8.91;100.00
36502;BME280;25393;46.108;3.390;2023-02-19T08:18:58;99191.72;;;8.95;100.00
36502;BME280;25393;46.108;3.390;2023-02-19T08:21:27;99207.56;;;8.95;100.00
36502;BME280;25393;46.108;3.390;2023-02-19T08:23:53;99206.34;;;8.99;100.00
36502;BME280;25393;46.108;3.390;2023-02-19T08:26:20;99207.19;;;8.99;100.00
36502;BME280;25393;46.108;3.390;2023-02-19T08:28:47;99210.69;;;9.00;100.00
36502;BME280;25393;46.108;3.390;2023-02-19T08:31:14;99200.22;;;8.98;100.00
36502;BME280;25393;46.108;3.390;2023-02-19T08:33:41;99208.16;;;8.98;100.00
36502;BME280;25393;46.108;3.390;2023-02-19T08:36:08;99213.59;;;8.97;100.00
36502;BME280;25393;46.108;3.390;2023-02-19T08:38:35;99221.94;;;9.02;100.00
36502;BME280;25393;46.108;3.390;2023-02-19T08:41:20;99222.69;;;9.04;100.00
36502;BME280;25393;46.108;3.390;2023-02-19T08:43:47;99224.91;;;9.09;100.00
36502;BME280;25393;46.108;3.390;2023-02-19T08:46:14;99220.03;;;9.04;100.00
36502;BME280;25393;46.108;3.390;2023-02-19T08:48:40;99221.09;;;9.01;100.00
36502;BME280;25393;46.108;3.390;2023-02-19T08:51:09;99234.25;;;9.13;100.00
36502;BME280;25393;46.108;3.390;2023-02-19T08:53:38;99241.50;;;9.11;100.00
36502;BME280;25393;46.108;3.390;2023-02-19T08:56:13;99242.97;;;9.24;100.00
36502;BME280;25393;46.108;3.390;2023-02-19T08:58:40;99236.38;;;9.19;100.00
36502;BME280;25393;46.108;3.390;2023-02-19T09:01:12;99240.69;;;9.20;100.00
36502;BME280;25393;46.108;3.390;2023-02-19T09:03:41;99233.22;;;9.25;100.00
36502;BME280;25393;46.108;3.390;2023-02-19T09:06:13;99238.56;;;9.34;100.00
36502;BME280;25393;46.108;3.390;2023-02-19T09:08:41;99229.75;;;9.24;100.00
36502;BME280;25393;46.108;3.390;2023-02-19T09:11:07;99237.28;;;9.29;100.00
36502;BME280;25393;46.108;3.390;2023-02-19T09:13:34;99243.84;;;9.34;100.00
36502;BME280;25393;46.108;3.390;2023-02-19T09:16:04;99244.72;;;9.44;100.00
36502;BME280;25393;46.108;3.390;2023-02-19T09:18:31;99240.69;;;9.50;100.00
36502;BME280;25393;46.108;3.390;2023-02-19T09:21:02;99238.31;;;9.47;100.00
36502;BME280;25393;46.108;3.390;2023-02-19T09:23:34;99238.06;;;9.50;100.00
36502;BME280;25393;46.108;3.390;2023-02-19T09:26:03;99250.88;;;9.54;100.00
36502;BME280;25393;46.108;3.390;2023-02-19T09:28:32;99248.13;;;9.56;100.00
36502;BME280;25393;46.108;3.390;2023-02-19T09:31:03;99243.44;;;9.69;100.00
36502;BME280;25393;46.108;3.390;2023-02-19T09:33:33;99259.38;;;9.88;100.00
36502;BME280;25393;46.108;3.390;2023-02-19T09:36:01;99264.97;;;9.95;100.00
36502;BME280;25393;46.108;3.390;2023-02-19T09:38:28;99252.44;;;9.97;100.00
36502;BME280;25393;46.108;3.390;2023-02-19T09:41:08;99265.38;;;10.00;100.00
36502;BME280;25393;46.108;3.390;2023-02-19T09:43:36;99248.25;;;9.94;100.00
36502;BME280;25393;46.108;3.390;2023-02-19T09:49:01;99252.03;;;10.11;100.00
36502;BME280;25393;46.108;3.390;2023-02-19T09:51:31;99250.69;;;10.17;100.00
36502;BME280;25393;46.108;3.390;2023-02-19T09:54:05;99252.78;;;10.23;100.00
36502;BME280;25393;46.108;3.390;2023-02-19T09:56:33;99265.78;;;10.35;100.00
36502;BME280;25393;46.108;3.390;2023-02-19T09:59:03;99238.94;;;10.10;100.00
36502;BME280;25393;46.108;3.390;2023-02-19T10:01:33;99254.75;;;10.30;100.00
36502;BME280;25393;46.108;3.390;2023-02-19T10:04:03;99269.81;;;10.49;100.00
36502;BME280;25393;46.108;3.390;2023-02-19T10:06:33;99263.13;;;10.35;100.00
36502;BME280;25393;46.108;3.390;2023-02-19T10:09:17;99276.94;;;10.29;100.00
36502;BME280;25393;46.108;3.390;2023-02-19T10:11:47;99265.88;;;10.24;100.00
36502;BME280;25393;46.108;3.390;2023-02-19T10:14:50;99278.19;;;10.35;100.00
36502;BME280;25393;46.108;3.390;2023-02-19T10:17:27;99280.13;;;10.23;100.00
36502;BME280;25393;46.108;3.390;2023-02-19T10:19:57;99273.84;;;10.24;100.00
36502;BME280;25393;46.108;3.390;2023-02-19T10:22:24;99271.47;;;10.21;100.00
36502;BME280;25393;46.108;3.390;2023-02-19T10:24:53;99281.66;;;10.35;100.00
36502;BME280;25393;46.108;3.390;2023-02-19T10:27:21;99279.19;;;10.43;100.00
36502;BME280;25393;46.108;3.390;2023-02-19T10:29:48;99282.66;;;10.44;100.00
36502;BME280;25393;46.108;3.390;2023-02-19T10:32:21;99287.53;;;10.48;100.00
36502;BME280;25393;46.108;3.390;2023-02-19T10:35:14;99284.75;;;10.50;100.00
36502;BME280;25393;46.108;3.390;2023-02-19T10:37:46;99280.44;;;10.68;100.00
36502;BME280;25393;46.108;3.390;2023-02-19T10:40:18;99284.50;;;10.72;100.00
36502;BME280;25393;46.108;3.390;2023-02-19T10:42:51;99286.03;;;10.65;100.00
36502;BME280;25393;46.108;3.390;2023-02-19T10:47:52;99280.72;;;10.75;100.00
36502;BME280;25393;46.108;3.390;2023-02-19T10:50:28;99280.72;;;10.75;100.00
36502;BME280;25393;46.108;3.390;2023-02-19T10:52:57;99281.84;;;10.72;100.00
36502;BME280;25393;46.108;3.390;2023-02-19T10:55:34;99282.13;;;10.79;100.00
36502;BME280;25393;46.108;3.390;2023-02-19T10:58:24;99282.94;;;10.89;100.00
36502;BME280;25393;46.108;3.390;2023-02-19T11:01:14;99282.09;;;10.98;100.00
36502;BME280;25393;46.108;3.390;2023-02-19T11:03:41;99281.38;;;11.06;100.00
36502;BME280;25393;46.108;3.390;2023-02-19T11:06:09;99280.09;;;11.29;100.00
36502;BME280;25393;46.108;3.390;2023-02-19T11:08:49;99278.38;;;11.37;100.00
36502;BME280;25393;46.108;3.390;2023-02-19T11:11:35;99275.13;;;11.53;100.00
36502;BME280;25393;46.108;3.390;2023-02-19T11:14:11;99277.44;;;11.66;100.00
36502;BME280;25393;46.108;3.390;2023-02-19T11:16:45;99271.59;;;11.62;100.00
36502;BME280;25393;46.108;3.390;2023-02-19T11:19:35;99275.63;;;11.66;100.00
36502;BME280;25393;46.108;3.390;2023-02-19T11:22:28;99250.09;;;11.56;100.00
36502;BME280;25393;46.108;3.390;2023-02-19T11:27:53;99252.09;;;11.53;100.00
36502;BME280;25393;46.108;3.390;2023-02-19T11:30:43;99257.81;;;11.49;100.00
36502;BME280;25393;46.108;3.390;2023-02-19T11:35:43;99246.81;;;11.34;100.00
36502;BME280;25393;46.108;3.390;2023-02-19T11:38:12;99240.13;;;11.30;100.00
36502;BME280;25393;46.108;3.390;2023-02-19T11:40:43;99252.00;;;11.36;100.00
36502;BME280;25393;46.108;3.390;2023-02-19T11:43:38;99251.63;;;11.21;100.00
36502;BME280;25393;46.108;3.390;2023-02-19T11:52:16;99242.31;;;11.44;100.00
36502;BME280;25393;46.108;3.390;2023-02-19T11:57:08;99232.97;;;11.40;100.00
36502;BME280;25393;46.108;3.390;2023-02-19T12:08:08;99221.03;;;11.54;100.00
36502;BME280;25393;46.108;3.390;2023-02-19T12:21:52;99219.47;;;11.71;100.00
36502;BME280;25393;46.108;3.390;2023-02-19T12:27:28;99198.59;;;11.76;99.95
36502;BME280;25393;46.108;3.390;2023-02-19T12:36:24;99200.03;;;12.15;97.03
36502;BME280;25393;46.108;3.390;2023-02-19T12:41:48;99199.66;;;12.10;95.38
36502;BME280;25393;46.108;3.390;2023-02-19T12:44:23;99192.22;;;12.14;94.79
36502;BME280;25393;46.108;3.390;2023-02-19T12:46:58;99194.88;;;12.31;94.31
36502;BME280;25393;46.108;3.390;2023-02-19T12:49:35;99190.78;;;12.37;94.17
36502;BME280;25393;46.108;3.390;2023-02-19T12:52:20;99192.38;;;12.47;95.65
36502;BME280;25393;46.108;3.390;2023-02-19T12:54:50;99188.88;;;12.29;93.88
36502;BME280;25393;46.108;3.390;2023-02-19T12:57:27;99185.53;;;12.10;94.47
36502;BME280;25393;46.108;3.390;2023-02-19T12:59:59;99187.50;;;12.08;95.29
36502;BME280;25393;46.108;3.390;2023-02-19T13:03:08;99198.97;;;12.08;95.93
36502;BME280;25393;46.108;3.390;2023-02-19T13:05:54;99197.53;;;12.14;95.87
36502;BME280;25393;46.108;3.390;2023-02-19T13:08:48;99198.97;;;12.26;94.65
36502;BME280;25393;46.108;3.390;2023-02-19T13:12:10;99194.94;;;12.22;92.87
36502;BME280;25393;46.108;3.390;2023-02-19T13:14:44;99188.94;;;12.20;88.45
36502;BME280;25393;46.108;3.390;2023-02-19T13:17:22;99191.75;;;12.18;88.83
36502;BME280;25393;46.108;3.390;2023-02-19T13:19:57;99192.88;;;11.98;87.04
36502;BME280;25393;46.108;3.390;2023-02-19T13:28:34;99177.59;;;11.82;88.04
36502;BME280;25393;46.108;3.390;2023-02-19T13:31:24;99177.59;;;11.82;89.20
36502;BME280;25393;46.108;3.390;2023-02-19T13:37:13;99176.25;;;11.96;86.98
36502;BME280;25393;46.108;3.390;2023-02-19T13:39:48;99177.59;;;12.00;86.26
36502;BME280;25393;46.108;3.390;2023-02-19T13:42:35;99175.03;;;11.90;86.53
36502;BME280;25393;46.108;3.390;2023-02-19T13:45:04;99179.03;;;11.77;86.01
36502;BME280;25393;46.108;3.390;2023-02-19T13:50:33;99179.63;;;11.61;87.97
36502;BME280;25393;46.108;3.390;2023-02-19T13:59:37;99166.94;;;11.55;89.98
36502;BME280;25393;46.108;3.390;2023-02-19T14:02:10;99164.53;;;11.62;89.40
36502;BME280;25393;46.108;3.390;2023-02-19T14:04:44;99154.88;;;11.43;90.57
36502;BME280;25393;46.108;3.390;2023-02-19T14:09:44;99141.53;;;11.25;90.02
36502;BME280;25393;46.108;3.390;2023-02-19T14:14:44;99142.69;;;11.50;90.24
36502;BME280;25393;46.108;3.390;2023-02-19T14:17:46;99137.00;;;11.63;89.66
36502;BME280;25393;46.108;3.390;2023-02-19T14:30:33;99135.72;;;12.12;89.44
36502;BME280;25393;46.108;3.390;2023-02-19T14:33:01;99140.41;;;12.18;89.22
36502;BME280;25393;46.108;3.390;2023-02-19T14:35:44;99133.97;;;12.20;88.51
36502;BME280;25393;46.108;3.390;2023-02-19T14:38:39;99136.03;;;12.09;88.59
36502;BME280;25393;46.108;3.390;2023-02-19T14:41:11;99149.84;;;12.12;89.10
36502;BME280;25393;46.108;3.390;2023-02-19T14:43:39;99142.69;;;11.95;88.40
36502;BME280;25393;46.108;3.390;2023-02-19T14:48:52;99141.53;;;11.80;88.91
36502;BME280;25393;46.108;3.390;2023-02-19T14:51:28;99142.50;;;11.79;87.60
36502;BME280;25393;46.108;3.390;2023-02-19T14:53:56;99131.63;;;11.82;87.30
36502;BME280;25393;46.108;3.390;2023-02-19T14:56:27;99138.56;;;11.83;87.52
36502;BME280;25393;46.108;3.390;2023-02-19T15:01:35;99136.22;;;11.80;86.88
36502;BME280;25393;46.108;3.390;2023-02-19T15:04:04;99125.50;;;11.72;86.26
36502;BME280;25393;46.108;3.390;2023-02-19T15:06:33;99129.28;;;11.69;86.05
36502;BME280;25393;46.108;3.390;2023-02-19T15:09:03;99144.06;;;11.81;87.66
36502;BME280;25393;46.108;3.390;2023-02-19T15:11:31;99128.97;;;11.82;87.27
36502;BME280;25393;46.108;3.390;2023-02-19T15:14:03;99132.06;;;11.77;85.56
36502;BME280;25393;46.108;3.390;2023-02-19T15:16:31;99153.84;;;11.81;85.91
36502;BME280;25393;46.108;3.390;2023-02-19T15:18:59;99147.50;;;11.64;86.66
36502;BME280;25393;46.108;3.390;2023-02-19T15:21:29;99142.75;;;11.58;85.96
36502;BME280;25393;46.108;3.390;2023-02-19T15:24:01;99134.41;;;11.53;86.24